createdAt,value
2023-04-01T00:00:05.844Z,93.30
2023-04-01T00:02:36.204Z,93.30
2023-04-01T00:05:05.848Z,93.00
2023-04-01T00:07:34.234Z,92.90
2023-04-01T00:10:04.059Z,92.90
2023-04-01T00:12:32.061Z,93.20
2023-04-01T00:15:05.945Z,93.00
2023-04-01T00:17:34.003Z,92.90
2023-04-01T00:20:04.418Z,93.00
2023-04-01T00:22:32.694Z,93.10
2023-04-01T00:25:00.941Z,93.20
2023-04-01T00:27:37.624Z,93.50
2023-04-01T00:30:05.230Z,93.30
2023-04-01T00:32:33.452Z,93.30
2023-04-01T00:35:03.462Z,93.30
2023-04-01T00:37:33.222Z,93.30
2023-04-01T00:40:02.309Z,93.70
2023-04-01T00:42:36.257Z,93.70
2023-04-01T00:45:04.553Z,93.50
2023-04-01T00:47:34.791Z,93.30
2023-04-01T00:50:07.301Z,92.90
2023-04-01T00:52:34.868Z,92.80
2023-04-01T00:55:03.599Z,92.70
2023-04-01T00:57:33.591Z,92.80
2023-04-01T01:00:03.752Z,92.80
2023-04-01T01:02:33.150Z,92.60
2023-04-01T01:05:03.540Z,92.30
2023-04-01T01:07:34.064Z,92.30
2023-04-01T01:10:01.835Z,92.50
2023-04-01T01:12:32.916Z,92.50
2023-04-01T01:15:00.560Z,92.40
2023-04-01T01:17:31.266Z,92.10
2023-04-01T01:20:02.681Z,91.80
2023-04-01T01:22:31.706Z,91.40
2023-04-01T01:25:07.205Z,91.20
2023-04-01T01:27:35.368Z,91.20
2023-04-01T01:30:06.844Z,91.40
2023-04-01T01:32:38.138Z,91.00
2023-04-01T01:35:05.890Z,90.60
2023-04-01T01:37:34.291Z,90.80
2023-04-01T01:40:04.157Z,90.30
2023-04-01T01:42:33.628Z,89.00
2023-04-01T01:45:02.056Z,88.60
2023-04-01T01:47:32.140Z,87.40
2023-04-01T01:50:00.871Z,87.00
2023-04-01T01:52:30.719Z,86.20
2023-04-01T01:55:02.886Z,86.10
2023-04-01T01:57:32.495Z,86.60
2023-04-01T02:00:00.425Z,85.90
2023-04-01T02:02:31.426Z,85.00
2023-04-01T02:04:59.372Z,83.90
2023-04-01T02:07:27.132Z,84.10
2023-04-01T02:09:57.274Z,83.90
2023-04-01T02:12:25.734Z,83.10
2023-04-01T02:14:53.807Z,82.60
2023-04-01T02:17:22.841Z,82.60
2023-04-01T02:19:52.628Z,80.70
2023-04-01T02:22:21.299Z,80.70
2023-04-01T02:24:51.135Z,80.50
2023-04-01T02:27:19.276Z,80.50
2023-04-01T02:29:49.457Z,80.40
2023-04-01T02:32:22.817Z,79.60
2023-04-01T02:34:51.776Z,79.70
2023-04-01T02:37:19.568Z,79.60
2023-04-01T02:39:49.546Z,78.80
2023-04-01T02:42:17.350Z,77.70
2023-04-01T02:44:45.074Z,78.80
2023-04-01T02:47:15.725Z,78.50
2023-04-01T02:49:43.376Z,78.10
2023-04-01T02:52:10.975Z,77.20
2023-04-01T02:54:41.043Z,77.60
2023-04-01T02:57:08.800Z,77.20
2023-04-01T02:59:36.403Z,76.20
2023-04-01T03:02:06.575Z,75.10
2023-04-01T03:04:34.152Z,75.40
2023-04-01T03:07:01.877Z,72.80
2023-04-01T03:09:31.946Z,73.20
2023-04-01T03:11:59.639Z,73.60
2023-04-01T03:14:27.907Z,73.60
2023-04-01T03:16:57.973Z,74.60
2023-04-01T03:19:25.887Z,73.60
2023-04-01T03:21:53.539Z,72.90
2023-04-01T03:24:23.952Z,73.20
2023-04-01T03:26:51.858Z,73.00
2023-04-01T03:29:19.642Z,73.90
2023-04-01T03:31:49.714Z,72.60
2023-04-01T03:34:17.465Z,70.50
2023-04-01T03:36:45.067Z,71.70
2023-04-01T03:39:12.956Z,69.40
2023-04-01T03:41:40.522Z,69.70
2023-04-01T03:44:08.155Z,69.90
2023-04-01T03:46:38.082Z,69.10
2023-04-01T03:49:05.827Z,69.80
2023-04-01T03:51:33.719Z,68.60
2023-04-01T03:54:03.678Z,67.30
2023-04-01T03:56:31.293Z,67.50
2023-04-01T03:58:59.154Z,66.40
2023-04-01T04:01:31.880Z,65.40
2023-04-01T04:03:59.399Z,65.00
2023-04-01T04:06:28.473Z,63.60
2023-04-01T04:08:58.633Z,63.70
2023-04-01T04:11:26.184Z,63.40
2023-04-01T04:13:54.329Z,62.80
2023-04-01T04:16:25.095Z,63.10
2023-04-01T04:18:52.804Z,62.90
2023-04-01T04:21:21.010Z,62.90
2023-04-01T04:23:50.998Z,62.40
2023-04-01T04:26:18.642Z,61.20
2023-04-01T04:28:46.626Z,62.70
2023-04-01T04:31:16.933Z,61.70
2023-04-01T04:33:44.522Z,62.30
2023-04-01T04:36:14.510Z,63.10
2023-04-01T04:38:42.212Z,62.60
2023-04-01T04:41:09.678Z,62.20
2023-04-01T04:43:39.587Z,61.70
2023-04-01T04:46:07.274Z,61.90
2023-04-01T04:48:35.104Z,62.10
2023-04-01T04:51:05.156Z,63.10
2023-04-01T04:53:33.559Z,62.20
2023-04-01T04:56:01.155Z,61.10
2023-04-01T04:58:29.120Z,61.20
2023-04-01T05:00:56.747Z,61.90
2023-04-01T05:03:24.556Z,61.60
2023-04-01T05:05:54.587Z,61.10
2023-04-01T05:08:22.246Z,60.90
2023-04-01T05:10:49.811Z,60.50
2023-04-01T05:13:19.780Z,60.60
2023-04-01T05:15:47.830Z,60.10
2023-04-01T05:18:15.454Z,60.00
2023-04-01T05:20:45.653Z,59.10
2023-04-01T05:23:13.362Z,60.40
2023-04-01T05:25:41.985Z,57.00
2023-04-01T05:28:12.039Z,58.20
2023-04-01T05:30:39.715Z,57.30
2023-04-01T05:33:08.522Z,57.50
2023-04-01T05:35:38.603Z,57.30
2023-04-01T05:38:06.903Z,56.50
2023-04-01T05:40:36.110Z,56.70
2023-04-01T05:43:06.028Z,57.20
2023-04-01T05:45:33.745Z,56.40
2023-04-01T05:48:05.571Z,55.40
2023-04-01T05:50:35.549Z,56.10
2023-04-01T05:53:03.414Z,56.40
2023-04-01T05:55:31.710Z,57.50
2023-04-01T05:58:02.108Z,56.20
2023-04-01T06:00:36.028Z,55.50
2023-04-01T06:03:07.052Z,54.50
2023-04-01T06:05:35.573Z,53.70
2023-04-01T06:08:06.302Z,54.00
2023-04-01T06:10:37.965Z,53.10
2023-04-01T06:13:05.722Z,53.40
2023-04-01T06:15:34.725Z,53.70
2023-04-01T06:18:05.039Z,53.70
2023-04-01T06:20:36.389Z,53.60
2023-04-01T06:23:03.955Z,52.90
